http://www.ohio.gov http://www.dot.state.oh.us
W W W . B U C K E Y E T R A F F I C . O R G

1-SR49 @ SR249 (200000) Status Air Temp Sfc Temp Sub Temp Dew Temp Wind Precip Traffic Updated
Sensor [A]: Atmospheric - 48.0 - - - 1.2 / W - - 7/29/2014 6:31:57 AM
2-SR-309 @ SR-235 (200001) Status Air Temp Sfc Temp Sub Temp Dew Temp Wind Precip Traffic Updated
Sensor [A]: Atmospheric - 49.3 - - 47.5 3.7 / N - - 7/29/2014 6:31:13 AM
Sensor [0]: SR309 EB Dry - 52.7 - - - - - 7/29/2014 6:31:13 AM
3-US24 @ Indiana Line (200002) Status Air Temp Sfc Temp Sub Temp Dew Temp Wind Precip Traffic Updated
Sensor [A]: Atmospheric - 50.4 - - 48.6 3.1 / W - - 7/29/2014 6:31:59 AM
4-US224 @ SR190 (200003) Status Air Temp Sfc Temp Sub Temp Dew Temp Wind Precip Traffic Updated
Sensor [A]: Atmospheric - 47.1 - - 46.8 1.2 / SW - - 7/29/2014 6:28:57 AM
Sensor [0]: Eastbound Driving Lane Dry - 52.7 - - - - 1 / 65.2 7/29/2014 6:28:57 AM
5- US30 @ SR49 North (200004) Status Air Temp Sfc Temp Sub Temp Dew Temp Wind Precip Traffic Updated
Sensor [A]: Atmospheric - 50.0 - - 50.4 3.7 / SW - - 7/29/2014 6:32:31 AM
6-US23 @ SLM 11.2 (200005) Status Air Temp Sfc Temp Sub Temp Dew Temp Wind Precip Traffic Updated
Sensor [A]: Atmospheric - - - - - / Unknown - - 7/28/2014 9:22:25 PM
7-US30 Bypass @ SR4 (200006) Status Air Temp Sfc Temp Sub Temp Dew Temp Wind Precip Traffic Updated
Sensor [A]: Atmospheric - 55.8 - - 53.6 0.6 / SW - - 7/29/2014 6:29:00 AM
Sensor [0]: East Bound Driving Lane Dry - 70.7 - - - - 18 / 57.2 7/29/2014 6:29:00 AM
Sensor [1]: East Bound Passing Lane Error - - - - - - 80 / 158.4 7/29/2014 6:29:00 AM
Sensor [2]: West Bound Passing Lane Bridge Error - - - - - - 1 / 65.2 7/29/2014 6:29:00 AM
Sensor [3]: West Bound Driving Lane Dry - 57.2 - - - - 18 / 54.1 7/29/2014 6:29:00 AM
8-Huron County Garage (200007) Status Air Temp Sfc Temp Sub Temp Dew Temp Wind Precip Traffic Updated
Sensor [A]: Atmospheric - 51.3 - - 49.1 1.9 / SW - - 7/29/2014 6:30:43 AM
Sensor [0]: US250 NB Lane Dry - 56.3 - - - - 2 / 65.2 7/29/2014 6:30:43 AM
Sensor [1]: US250 SB Lane Dry - 62.6 - - - - 8 / 52.2 7/29/2014 6:30:43 AM
9-I77 MM 109 @ Belden Village (200008) Status Air Temp Sfc Temp Sub Temp Dew Temp Wind Precip Traffic Updated
Sensor [A]: Atmospheric - 49.8 - - 47.1 - - - 7/29/2014 6:32:06 AM
10-SR5@SR45 (200009) Status Air Temp Sfc Temp Sub Temp Dew Temp Wind Precip Traffic Updated
Sensor [A]: Atmospheric - 55.4 - - 48.9 3.7 / SW - - 7/29/2014 6:30:30 AM
Sensor [0]: EB Driving Dry - 59.9 72.5 - - - - 7/29/2014 6:30:30 AM
Sensor [1]: SR5 EB Passing Dry - 59.9 - - - - - 7/29/2014 6:30:30 AM
Sensor [2]: SR5 WB Passing Bridgedeck Dry - 57.2 - - - - - 7/29/2014 6:30:30 AM
Sensor [3]: SR5 EB passing Bridgedeck Dry - 57.2 - - - - - 7/29/2014 6:30:30 AM
11-SR36@SR206 (200010) Status Air Temp Sfc Temp Sub Temp Dew Temp Wind Precip Traffic Updated
Sensor [A]: Atmospheric - 52.7 - - 51.8 - - - 7/29/2014 6:11:28 AM
Sensor [1]: US36 WB Dry - 54.5 - - - - - 7/29/2014 6:11:28 AM
12-US-33 @ SR793 (200011) Status Air Temp Sfc Temp Sub Temp Dew Temp Wind Precip Traffic Updated
Sensor [A]: Atmospheric - -20.7 - - -65.2 1.9 / E - - 7/21/2014 12:19:00 PM
Sensor [0]: US33 EB Driving Error - - 70.7 - - - 29 / 21.1 7/21/2014 12:19:00 PM
Sensor [1]: US33 EB Passing Error - - - - - - 6 / 9.9 7/21/2014 12:19:00 PM
Sensor [2]: US33 WB Passing Error - - - - - - 8 / 67.1 7/21/2014 12:19:00 PM
Sensor [3]: US33 WB Driving Error - - - - - - 28 / 65.9 7/21/2014 12:19:00 PM
13-Knox County Garage (200012) Status Air Temp Sfc Temp Sub Temp Dew Temp Wind Precip Traffic Updated
Sensor [A]: Atmospheric - 51.4 - - 50.7 - - - 7/29/2014 6:32:08 AM
Sensor [0]: SR-3 NB Driving Dry - 56.3 - - - - 3 / 37.9 7/29/2014 6:32:08 AM
Sensor [1]: SR-3 SB Driving Dry - 55.0 - - - - 20 / 36.0 7/29/2014 6:32:08 AM
14-SR13@CR26N/Sheridan Rd (200013) Status Air Temp Sfc Temp Sub Temp Dew Temp Wind Precip Traffic Updated
Sensor [A]: Atmospheric - 56.8 - - 53.6 1.9 / N - - 7/29/2014 6:32:10 AM
Sensor [0]: SR13 Eastbound Dry - 60.8 - - - - - 7/29/2014 6:32:10 AM
15-US35 @ SR62 (200014) Status Air Temp Sfc Temp Sub Temp Dew Temp Wind Precip Traffic Updated
Sensor [A]: Atmospheric - 54.7 - - 8.4 5.0 / N - - 7/29/2014 6:33:18 AM
Sensor [0]: US35 Eastbound Driving Dry - 59.0 80.6 - - - - 7/29/2014 6:33:18 AM
Sensor [1]: US35 Westbound Driving Dry - 57.2 - - - - - 7/29/2014 6:33:18 AM
Sensor [2]: SR62 Northbound Bridgedeck Wet - 54.5 - - - - - 7/29/2014 6:33:18 AM
16-SR-752 @ 1.3 Pickaway County (200015) Status Air Temp Sfc Temp Sub Temp Dew Temp Wind Precip Traffic Updated
Sensor [A]: Atmospheric - 58.1 - - 56.5 - - - 7/29/2014 6:30:50 AM
17-US23 @ E. Fairground Road Overpass (200016) Status Air Temp Sfc Temp Sub Temp Dew Temp Wind Precip Traffic Updated
Sensor [A]: Atmospheric - 52.5 - - 51.3 3.1 / NE - - 7/29/2014 6:29:12 AM
Sensor [0]: US23 NorthBound Passing Approach Dry - 59.5 - - - - - 7/29/2014 6:29:12 AM
Sensor [1]: US23 SouthBound Passing Bridgedeck Trace Moisture - 59.5 75.4 - - - 34 / 57.2 7/29/2014 6:29:12 AM
18-US33 @ SR739 (200017) Status Air Temp Sfc Temp Sub Temp Dew Temp Wind Precip Traffic Updated
Sensor [A]: Atmospheric - 55.8 - - 60.1 1.2 / NE - - 7/29/2014 6:30:48 AM
Sensor [0]: US33 Eastbound Driving Shade Dry - 60.8 68.0 - - - - 7/29/2014 6:30:48 AM
Sensor [1]: US33 Eastbound Passing Dry - 59.0 - - - - - 7/29/2014 6:30:48 AM
Sensor [2]: US33 Westbound Passing Dry - 59.0 - - - - - 7/29/2014 6:30:48 AM
Sensor [4]: SR739 Northbound Bridgedeck Dry - 58.1 - - - - - 7/29/2014 6:30:48 AM
19-US68 @ SLM 1.4 (200018) Status Air Temp Sfc Temp Sub Temp Dew Temp Wind Precip Traffic Updated
Sensor [A]: Atmospheric - 72.7 - - 64.4 - - - 7/22/2014 8:50:00 AM
Sensor [0]: SR68 NB Driving Deck Error - - - - - - 12 / 139.2 7/22/2014 8:50:00 AM
Sensor [1]: SR68 NB Passing Deck Error - - - - - - 4 / 158.4 7/22/2014 8:50:00 AM
Sensor [2]: SR68 SB Passing Error - - - - - - 0 / 65.2 7/22/2014 8:50:00 AM
Sensor [3]: SR68 SB Driving Error - - - - - - 4 / 51.0 7/22/2014 8:50:00 AM
20-SR502 @ SLM 0.5 (200019) Status Air Temp Sfc Temp Sub Temp Dew Temp Wind Precip Traffic Updated
Sensor [A]: Atmospheric - 48.7 - - 51.1 1.9 / N - - 7/29/2014 6:32:27 AM
Sensor [0]: SR502 EB Lane Dry - 52.7 - - - - 1 / 26.7 7/29/2014 6:32:27 AM
21-US33 @ SR540 (200020) Status Air Temp Sfc Temp Sub Temp Dew Temp Wind Precip Traffic Updated
Sensor [A]: Atmospheric - 53.4 - - 49.3 3.7 / NW - - 7/29/2014 6:19:31 AM
22-SR29 @ SLM 0.8 (200021) Status Air Temp Sfc Temp Sub Temp Dew Temp Wind Precip Traffic Updated
Sensor [A]: Atmospheric - 49.1 - - 46.4 0.6 / S - - 7/29/2014 6:24:00 AM
Sensor [0]: SR29 EB Lane Error - - 74.1 - - - 0 / 5.0 7/29/2014 6:24:00 AM
Sensor [1]: SR29 WB Lane Error - - - - - - 1 / 5.0 7/29/2014 6:24:00 AM
23-SR41 @ SR136 Adams County (200022) Status Air Temp Sfc Temp Sub Temp Dew Temp Wind Precip Traffic Updated
Sensor [A]: Atmospheric - 52.0 - - 51.1 0.6 / W - - 7/29/2014 6:33:35 AM
Sensor [0]: SR136 NB Lane Dry - 54.5 77.9 - - - - 7/29/2014 6:33:35 AM
Sensor [1]: SR136 SB Lane Dry - 56.3 - - - - - 7/29/2014 6:33:35 AM
24-US68@SR125 (200023) Status Air Temp Sfc Temp Sub Temp Dew Temp Wind Precip Traffic Updated
Sensor [A]: Atmospheric - 51.8 - - -2.9 0.6 / SE - - 7/29/2014 6:26:30 AM
Sensor [1]: SB US68 Dry - 54.5 - - - - - 7/29/2014 6:26:30 AM
25-Highland County Garage (200024) Status Air Temp Sfc Temp Sub Temp Dew Temp Wind Precip Traffic Updated
Sensor [A]: Atmospheric - 52.3 - - 52.5 - - - 7/29/2014 6:33:12 AM
26-SR32 @ US35 (200025) Status Air Temp Sfc Temp Sub Temp Dew Temp Wind Precip Traffic Updated
Sensor [A]: Atmospheric - 55.8 - - 55.4 - - - 7/29/2014 6:33:14 AM
Sensor [0]: US 35 WB Driving Lane Dry - 59.9 - - - - 18 / 54.1 7/29/2014 6:33:14 AM
Sensor [1]: US 35 EB Driving Lane Dry - 59.0 - - - - 14 / 59.0 7/29/2014 6:33:14 AM
Sensor [2]: SR32 Eastbound Driving Lane Bridgedeck Dry - 59.9 - - - - 12 / 57.8 7/29/2014 6:33:14 AM
Sensor [3]: SR32 Westbound Passing Lane Approach Dry - 57.2 - - - - 0 / 26.7 7/29/2014 6:33:14 AM
27-US52 @ Ice Creek (200026) Status Air Temp Sfc Temp Sub Temp Dew Temp Wind Precip Traffic Updated
Sensor [A]: Atmospheric - 57.6 - - 54.9 - - - 7/29/2014 6:32:03 AM
Sensor [0]: SR52 East Bound Driving Lane Dry - 58.1 74.8 - - - 43 / 52.8 7/29/2014 6:32:03 AM
Sensor [1]: SR52 East Bound Passing Lane Dry - 58.3 - - - - 16 / 62.1 7/29/2014 6:32:03 AM
Sensor [2]: SR52 West Bound Passing Lane Trace Moisture - 57.2 - - - - 6 / 55.3 7/29/2014 6:32:03 AM
Sensor [3]: SR52 West Bound Driving Lane Dry - 58.8 - - - - 1 / 5.0 7/29/2014 6:32:03 AM
28-US23 @ SLM 6.5 (200027) Status Air Temp Sfc Temp Sub Temp Dew Temp Wind Precip Traffic Updated
Sensor [A]: Atmospheric - 58.5 - - 55.4 - - - 7/29/2014 6:27:00 AM
Sensor [0]: US23 North Bound Driving Lane Error - - 79.9 - - - 32 / 44.1 7/29/2014 6:27:00 AM
Sensor [1]: US23 North Bound Passing Lane Dry - 66.2 - - - - 6 / 52.2 7/29/2014 6:27:00 AM
Sensor [2]: US23 South Bound Passing Lane Error - - - - - - 2 / 60.9 7/29/2014 6:27:00 AM
Sensor [3]: US23 South Bound Driving Lane Error - - - - - - 0 / 9.9 7/29/2014 6:27:00 AM
29-US35 @ MM 14.76 (200028) Status Air Temp Sfc Temp Sub Temp Dew Temp Wind Precip Traffic Updated
Sensor [A]: Atmospheric - 43.9 - - -38.2 - - - 7/29/2014 6:27:00 AM
Sensor [0]: SR35 EB Driving Dry - 61.3 - - - - 0 / 64.0 7/29/2014 6:27:00 AM
Sensor [1]: SR35 WB Passing Error - - - - - - 0 / 47.2 7/29/2014 6:27:00 AM
Sensor [2]: SR35 WB Driving Dry - 65.7 - - - - 4 / 65.2 7/29/2014 6:27:00 AM
Sensor [3]: Bridge Deck Simulator Error - - 50.4 - - - 0 / 55.9 7/29/2014 6:27:00 AM
30-US23 @ SLM 9.2 (200029) Status Air Temp Sfc Temp Sub Temp Dew Temp Wind Precip Traffic Updated
Sensor [A]: Atmospheric - 55.6 - - 52.2 - - - 7/29/2014 6:31:32 AM
Sensor [1]: US23 NB Passing Trace Moisture - 56.3 - - - - 9 / 39.8 7/29/2014 6:31:32 AM
Sensor [2]: US23 SB Passing Trace Moisture - 56.3 - - - - 3 / 59.0 7/29/2014 6:31:32 AM
Sensor [3]: US23 SB Driving Dry - 56.3 - - - - 15 / 52.2 7/29/2014 6:31:32 AM
31-USR 50 MM 17.68 (200030) Status Air Temp Sfc Temp Sub Temp Dew Temp Wind Precip Traffic Updated
Sensor [A]: Atmospheric - 57.6 - - 55.0 - - - 7/29/2014 6:30:38 AM
Sensor [0]: US50 Eastbound Driving Dry - 61.7 - - - - - 7/29/2014 6:30:38 AM
Sensor [2]: US50 Westbound Passing Dry - 62.6 - - - - - 7/29/2014 6:30:38 AM
Sensor [3]: US50 Westbound Driving Dry - 62.6 - - - - - 7/29/2014 6:30:38 AM
32-USR 35 @ SR 160 (200031) Status Air Temp Sfc Temp Sub Temp Dew Temp Wind Precip Traffic Updated
Sensor [A]: Atmospheric - 54.9 - - 54.3 - - - 7/29/2014 6:30:40 AM
Sensor [2]: US35 Westbound Passing Bridgedeck Trace Moisture - 57.2 - - - - - 7/29/2014 6:30:40 AM
Sensor [3]: US35 Westbound Driving Departure Dry - 59.0 - - - - - 7/29/2014 6:30:40 AM
33-US33@mm9.2 (200032) Status Air Temp Sfc Temp Sub Temp Dew Temp Wind Precip Traffic Updated
Sensor [A]: Atmospheric - 57.0 - - - 1.2 / SW - - 7/29/2014 6:32:12 AM
Sensor [1]: US33 Eastbound Passing Bridgedeck Dry - 59.9 - - - - - 7/29/2014 6:32:12 AM
Sensor [3]: US33 Westbound Driving Bridgedeck Dry - 61.7 - - - - - 7/29/2014 6:32:12 AM
34-US33 @ OH7 (200033) Status Air Temp Sfc Temp Sub Temp Dew Temp Wind Precip Traffic Updated
Sensor [A]: Atmospheric - 57.6 - - 55.9 1.2 / N - - 7/29/2014 6:33:26 AM
Sensor [0]: US-33 EB Driving Departure Dry - 62.6 75.2 - - - - 7/29/2014 6:33:26 AM
Sensor [1]: US-33 EB Passing Bridgedeck Dry - 58.1 - - - - - 7/29/2014 6:33:26 AM
Sensor [3]: US-33 WB Driving Approach Dry - 61.7 - - - - - 7/29/2014 6:33:26 AM
35-SR7 @ SLM12.7 (200034) Status Air Temp Sfc Temp Sub Temp Dew Temp Wind Precip Traffic Updated
Sensor [A]: Atmospheric - 57.2 - - 52.0 1.2 / SW - - 7/29/2014 6:33:24 AM
36-SR60 @ Monestary Rd (200035) Status Air Temp Sfc Temp Sub Temp Dew Temp Wind Precip Traffic Updated
Sensor [A]: Atmospheric - 54.9 - - 53.1 - - - 7/29/2014 6:33:22 AM
Sensor [0]: SR60 EB Lane Dry - 59.0 83.3 - - - - 7/29/2014 6:33:22 AM
Sensor [1]: SR60 WB Lane Dry - 59.0 - - - - - 7/29/2014 6:33:22 AM
37-SR32@SR160 (200036) Status Air Temp Sfc Temp Sub Temp Dew Temp Wind Precip Traffic Updated
Sensor [A]: Atmospheric - 53.1 - - 51.8 - - - 7/29/2014 6:32:14 AM
Sensor [2]: SR32 Westbound Passing Bridgedeck Dry - 53.8 - - - - - 7/29/2014 6:32:14 AM
38-SR43@SR9 (200037) Status Air Temp Sfc Temp Sub Temp Dew Temp Wind Precip Traffic Updated
Sensor [A]: Atmospheric - 49.5 - - 47.7 1.9 / NW - - 7/29/2014 6:30:33 AM
Sensor [0]: SR43 NB Trace Moisture - 50.9 - - - - - 7/29/2014 6:30:33 AM
Sensor [2]: SR9 SB Wet - 49.1 - - - - - 7/29/2014 6:30:33 AM
39-SR11@SR267 (200038) Status Air Temp Sfc Temp Sub Temp Dew Temp Wind Precip Traffic Updated
Sensor [A]: Atmospheric - 50.5 - - 47.7 - - - 7/29/2014 6:30:31 AM
40-Clinton County Garage (200039) Status Air Temp Sfc Temp Sub Temp Dew Temp Wind Precip Traffic Updated
Sensor [A]: Atmospheric - 50.4 - - 49.8 - - - 7/29/2014 6:33:20 AM
41- SR62@SR206 (200042) Status Air Temp Sfc Temp Sub Temp Dew Temp Wind Precip Traffic Updated
Sensor [A]: Atmospheric - 52.2 - - 49.1 0.6 / W - - 7/29/2014 6:30:41 AM
Sensor [0]: SR62 EB Dry - 52.7 - - - - 2 / 42.3 7/29/2014 6:30:41 AM
Sensor [1]: SR62 WB Dry - 52.7 - - - - 3 / 21.7 7/29/2014 6:30:41 AM
42- SR7@ SLM14.65 (200041) Status Air Temp Sfc Temp Sub Temp Dew Temp Wind Precip Traffic Updated
Sensor [A]: Atmospheric - 52.3 - - 50.4 - - - 7/29/2014 6:30:34 AM
Sensor [2]: SB SR7 Passing Dry - 54.5 - - - - - 7/29/2014 6:30:34 AM
51-I-70 @ 1.0 MM (200050) Status Air Temp Sfc Temp Sub Temp Dew Temp Wind Precip Traffic Updated
Sensor [A]: Atmospheric - 50.7 - - 49.6 1.2 / NW - - 7/29/2014 6:30:52 AM
Sensor [0]: IR70 East Bound Passing Lane Dry - 54.5 66.9 - - - 56 / 62.1 7/29/2014 6:30:52 AM
Sensor [1]: IR70 West Bound Passing Lane Dry - 54.5 - - - - 60 / 60.3 7/29/2014 6:30:52 AM
Sensor [2]: IR70 West Bound Driving Lane Dry - 54.5 - - - - 53 / 62.1 7/29/2014 6:30:52 AM
52-18 MM MOT/PRE (200051) Status Air Temp Sfc Temp Sub Temp Dew Temp Wind Precip Traffic Updated
Sensor [A]: Atmospheric - 49.6 - - 43.5 4.3 / NW - - 7/29/2014 6:30:53 AM
Sensor [2]: IR70 West Bound Passing Lane Dry - 54.5 66.0 - - - 26 / 62.8 7/29/2014 6:30:53 AM
53-CLA-70 @ I675 (200052) Status Air Temp Sfc Temp Sub Temp Dew Temp Wind Precip Traffic Updated
Sensor [A]: Atmospheric - 52.9 - - 50.9 0.6 / NW - - 7/29/2014 6:30:45 AM
Sensor [0]: IR70 East Bound Driving Lane Dry - 57.0 70.7 - - - 19 / 60.9 7/29/2014 6:30:45 AM
Sensor [1]: IR675 NB Driving Bridge Deck Dry - 53.8 - - - - 14 / 52.2 7/29/2014 6:30:45 AM
54-IR70 MM 62 (200053) Status Air Temp Sfc Temp Sub Temp Dew Temp Wind Precip Traffic Updated
Sensor [A]: Atmospheric - 51.8 - - 50.5 3.7 / E - - 7/29/2014 6:32:29 AM
Sensor [1]: I70 WB Passing Dry - 54.5 - - - - 24 / 60.3 7/29/2014 6:32:29 AM
55-IR70 MM 142 (200054) Status Air Temp Sfc Temp Sub Temp Dew Temp Wind Precip Traffic Updated
Sensor [A]: Atmospheric - 55.4 - - 54.0 1.2 / W - - 7/29/2014 6:30:55 AM
Sensor [2]: IR70 West Bound Passing Lane Dry - 58.1 - - - - 25 / 44.1 7/29/2014 6:30:55 AM
56-IR70 MM 169 (200055) Status Air Temp Sfc Temp Sub Temp Dew Temp Wind Precip Traffic Updated
Sensor [A]: Atmospheric - 54.7 - - 52.0 1.2 / NE - - 7/29/2014 6:30:57 AM
57-IR70 MM 198 (200056) Status Air Temp Sfc Temp Sub Temp Dew Temp Wind Precip Traffic Updated
Sensor [A]: Atmospheric - 51.3 - - 49.5 0.6 / S - - 7/29/2014 6:31:00 AM
Sensor [0]: IR70 East Bound Driving Lane Dry - 56.3 77.0 - - - 40 / 57.2 7/29/2014 6:31:00 AM
Sensor [1]: IR70 East Bound Passing Lane Dry - 56.3 - - - - 1 / 26.7 7/29/2014 6:31:00 AM
Sensor [2]: IR70 West Bound Passing Lane Dry - 54.5 - - - - 20 / 57.8 7/29/2014 6:31:00 AM
58-IR470 MM 6 (200057) Status Air Temp Sfc Temp Sub Temp Dew Temp Wind Precip Traffic Updated
Sensor [A]: Atmospheric - 53.2 - - 50.9 2.5 / NW - - 7/29/2014 6:31:08 AM
59-Warren Co. Garage ***Under Construction*** (200058) Status Air Temp Sfc Temp Sub Temp Dew Temp Wind Precip Traffic Updated
Sensor [A]: Atmospheric - 38.3 - - 26.6 8.1 / W - - 3/20/2014 10:56:00 AM
60-IR71 MM 62 (200059) Status Air Temp Sfc Temp Sub Temp Dew Temp Wind Precip Traffic Updated
Sensor [A]: Atmospheric - 53.2 - - 50.4 3.1 / W - - 7/29/2014 6:31:48 AM
Sensor [0]: IR71 NB Center Dry - 56.3 68.4 - - - 15 / 64.0 7/29/2014 6:31:48 AM
Sensor [1]: IR71 NB Passing Bridge Deck Dry - 56.3 - - - - 0 / 65.2 7/29/2014 6:31:48 AM
Sensor [2]: IR71 SB Passing Bridge Deck Dry - 56.3 - - - - 0 / 65.2 7/29/2014 6:31:48 AM
Sensor [3]: IR71 SB Center Dry - 57.2 - - - - 23 / 50.3 7/29/2014 6:31:48 AM
61-IR71 MM 79 (200060) Status Air Temp Sfc Temp Sub Temp Dew Temp Wind Precip Traffic Updated
Sensor [A]: Atmospheric - 55.0 - - 52.9 1.2 / N - - 7/29/2014 6:31:51 AM
Sensor [1]: IR71 North Bound Passing Lane Dry - 58.1 - - - - 20 / 62.8 7/29/2014 6:31:51 AM
Sensor [3]: IR71 South Bound Driving Lane Dry - 59.0 - - - - 34 / 60.9 7/29/2014 6:31:51 AM
62- Cemetary Rd. Over I-270 (200061) Status Air Temp Sfc Temp Sub Temp Dew Temp Wind Precip Traffic Updated
Sensor [A]: Atmospheric - 57.9 - - 55.0 3.7 / NE - - 7/29/2014 6:30:36 AM
Sensor [0]: I270NB Exit to Cemetery Rd WB Dry - 60.8 75.9 - - - 25 / 34.2 7/29/2014 6:30:36 AM
Sensor [1]: I270 NB Driving Dry - 59.9 - - - - 35 / 60.3 7/29/2014 6:30:36 AM
63-I71 MM 144 ***Under Construction*** (200062) Status Air Temp Sfc Temp Sub Temp Dew Temp Wind Precip Traffic Updated
Sensor [A]: Atmospheric - 60.3 - - 47.3 6.2 / E - - 4/9/2013 9:12:09 AM
Sensor [0]: I71 NB Driving (Deck) Dry - 68.9 46.9 - - - 46 / 55.9 4/9/2013 9:12:09 AM
Sensor [1]: I71 NB Passing (Approach) Dry - 60.1 - - - - 0 / 5.0 4/9/2013 9:12:09 AM
Sensor [3]: I71 SB Driving (Departure) Dry - 63.3 - - - - 0 / 65.2 4/9/2013 9:12:09 AM
64-I71 MM 158 (200063) Status Air Temp Sfc Temp Sub Temp Dew Temp Wind Precip Traffic Updated
Sensor [A]: Atmospheric - 52.3 - - 49.1 - - - 7/29/2014 6:32:15 AM
Sensor [1]: I71 NB Center Lane Dry - 53.8 - - - - 16 / 60.9 7/29/2014 6:32:15 AM
65-IR71 MM 174 (200064) Status Air Temp Sfc Temp Sub Temp Dew Temp Wind Precip Traffic Updated
Sensor [A]: Atmospheric - 47.7 - - 46.4 - - - 7/29/2014 6:32:20 AM
Sensor [0]: IR71 North Bound Driving Lane Dry - 54.5 - - - - 24 / 57.2 7/29/2014 6:32:20 AM
Sensor [1]: IR71 North Bound Center Lane Dry - 53.8 - - - - 18 / 64.0 7/29/2014 6:32:20 AM
Sensor [2]: IR71 South Bound Center Lane Dry - 54.5 - - - - 17 / 59.0 7/29/2014 6:32:20 AM
66-IR71 MM 195.55 (200065) Status Air Temp Sfc Temp Sub Temp Dew Temp Wind Precip Traffic Updated
Sensor [A]: Atmospheric - 46.4 - - 44.8 - - - 7/29/2014 6:30:38 AM
Sensor [0]: IR71 North Bound Driving Lane Dry - 52.7 31.8 - - - 4 / 55.3 7/29/2014 6:30:38 AM
Sensor [1]: IR71 South Bound Passing Lane Dry - 50.9 - - - - 0 / 54.1 7/29/2014 6:30:38 AM
67-IR71 MM 209 (200066) Status Air Temp Sfc Temp Sub Temp Dew Temp Wind Precip Traffic Updated
Sensor [A]: Atmospheric - 51.1 - - 46.2 1.9 / S - - 7/29/2014 6:32:22 AM
68-IR271 @ IR77 (200067) Status Air Temp Sfc Temp Sub Temp Dew Temp Wind Precip Traffic Updated
Sensor [A]: Atmospheric - 55.0 - - 46.8 4.3 / SW - - 7/29/2014 6:32:24 AM
Sensor [2]: IR271 SB Passing Lane Bridge Dry - 57.0 - - - - 1 / 5.0 7/29/2014 6:32:24 AM
69-IR275 MM 21 (200068) Status Air Temp Sfc Temp Sub Temp Dew Temp Wind Precip Traffic Updated
Sensor [A]: Atmospheric - 52.3 - - 49.6 0.6 / N - - 7/29/2014 6:31:53 AM
Sensor [0]: I275 MM21 NB Driving Dry - 56.3 72.1 - - - 57 / 60.3 7/29/2014 6:31:53 AM
Sensor [2]: I275 MM21 SB Driving Dry - 56.3 - - - - 38 / 64.0 7/29/2014 6:31:53 AM
70-IR275 HAM/CLER (200069) Status Air Temp Sfc Temp Sub Temp Dew Temp Wind Precip Traffic Updated
Sensor [A]: Atmospheric - 54.7 - - 51.1 0.6 / NE - - 7/29/2014 6:30:09 AM
Sensor [4]: I-275 SB Center Dry - 58.1 - - - - 51 / 65.2 7/29/2014 6:30:09 AM
71-I675 MONT/GRE (200070) Status Air Temp Sfc Temp Sub Temp Dew Temp Wind Precip Traffic Updated
Sensor [A]: Atmospheric - 53.8 - - 49.6 6.8 / W - - 7/29/2014 6:31:09 AM
Sensor [1]: I-675 North Bound Center Lane Dry - 59.9 - - - - 97 / 62.8 7/29/2014 6:31:09 AM
Sensor [2]: I-675 North Bound Passing Lane Dry - 54.5 - - - - 38 / 60.3 7/29/2014 6:31:09 AM
Sensor [3]: I-675 South Bound Passing Lane Dry - 56.3 - - - - 2 / 65.2 7/29/2014 6:31:09 AM
72-18 MM BUT/HAM (200071) Status Air Temp Sfc Temp Sub Temp Dew Temp Wind Precip Traffic Updated
Sensor [A]: Atmospheric - 54.1 - - 49.1 3.7 / NW - - 7/29/2014 6:31:01 AM
Sensor [3]: I75 NB Passing Dry - 57.2 - - - - - 7/29/2014 6:31:01 AM
73-I75mm27.5 SB (200072) Status Air Temp Sfc Temp Sub Temp Dew Temp Wind Precip Traffic Updated
Sensor [A]: Atmospheric - 52.2 - - 49.8 2.5 / N - - 7/29/2014 6:30:47 AM
74-IR75 MM 40 (200073) Status Air Temp Sfc Temp Sub Temp Dew Temp Wind Precip Traffic Updated
Sensor [A]: Atmospheric - 51.6 - - 50.2 1.2 / N - - 7/29/2014 6:31:11 AM
75-SR16@COS/MUS (200074) Status Air Temp Sfc Temp Sub Temp Dew Temp Wind Precip Traffic Updated
Sensor [A]: Atmospheric - 54.1 - - 50.7 - - - 7/29/2014 6:30:44 AM
Sensor [0]: SR16 EB Driving Bridgedeck Dry - 56.3 68.0 - - - - 7/29/2014 6:30:44 AM
Sensor [1]: SR16 EB Passing Wet - 58.1 - - - - - 7/29/2014 6:30:44 AM
76-IR75 MM 84 (200075) Status Air Temp Sfc Temp Sub Temp Dew Temp Wind Precip Traffic Updated
Sensor [A]: Atmospheric - 53.1 - - 52.7 0.6 / SW - - 7/29/2014 6:32:18 AM
Sensor [0]: IR75 North Bound Driving Lane Dry - 56.3 77.9 - - - 41 / 52.8 7/29/2014 6:32:18 AM
Sensor [1]: IR75 North Bound Passing Lane Dry - 56.3 - - - - 33 / 62.8 7/29/2014 6:32:18 AM
77-IR75 MM 105 (200076) Status Air Temp Sfc Temp Sub Temp Dew Temp Wind Precip Traffic Updated
Sensor [A]: Atmospheric - 50.4 - - 50.5 - - - 7/29/2014 6:31:34 AM
Sensor [0]: IR75 North Bound Passing Lane Trace Moisture - 51.8 67.1 - - - 0 / 37.3 7/29/2014 6:31:34 AM
78-IR75 MM 119 (200077) Status Air Temp Sfc Temp Sub Temp Dew Temp Wind Precip Traffic Updated
Sensor [A]: Atmospheric - 50.7 - - 50.0 - - - 7/29/2014 6:31:36 AM
Sensor [0]: IR75 North Bound Passing Lane Dry - 53.8 68.5 - - - 10 / 62.8 7/29/2014 6:31:36 AM
Sensor [1]: IR75 South Bound Passing Lane Dry - - - - - - 13 / 62.1 7/29/2014 6:31:36 AM
79-IR75 MM 141 (200078) Status Air Temp Sfc Temp Sub Temp Dew Temp Wind Precip Traffic Updated
Sensor [A]: Atmospheric - 88.5 - - 63.0 3.1 / SE - - 7/22/2014 6:12:19 PM
Sensor [0]: IR75 North Bound Driving Lane Dry - 111.2 - - - - 50 / 57.8 7/22/2014 6:12:19 PM
Sensor [2]: IR75 South Bound Passing Lane Dry - 115.7 - - - - 26 / 62.1 7/22/2014 6:12:19 PM
80-IR77 MM 0 (200079) Status Air Temp Sfc Temp Sub Temp Dew Temp Wind Precip Traffic Updated
Sensor [A]: Atmospheric - 72.7 - - 57.2 1.9 / SE - - 5/10/2014 4:22:00 PM
Sensor [0]: IR77 North Bound Driving Lane Dry - 84.2 69.1 - - - 22 / 54.1 5/10/2014 4:22:00 PM
Sensor [1]: IR77 North Bound Passing Lane Dry - 82.4 - - - - 13 / 57.8 5/10/2014 4:22:00 PM
Sensor [2]: IR77 South Bound Passing Lane Error - - - - - - 0 / 65.2 5/10/2014 4:22:00 PM
Sensor [3]: IR77 South Bound Driving Lane Error - - - - - - 9 / 62.8 5/10/2014 4:22:00 PM
81-IR77 MM 16 (200080) Status Air Temp Sfc Temp Sub Temp Dew Temp Wind Precip Traffic Updated
Sensor [A]: Atmospheric - 48.9 - - 44.6 - - - 7/29/2014 6:25:00 AM
Sensor [0]: IR77 North Bound Driving Lane Dry - 62.1 - - - - 34 / 62.1 7/29/2014 6:25:00 AM
Sensor [1]: IR77 North Bound Passing Lane Error - - - - - - 8 / 65.2 7/29/2014 6:25:00 AM
Sensor [2]: IR77 South Bound Passing Lane Dry - 65.7 - - - - 8 / 65.2 7/29/2014 6:25:00 AM
Sensor [3]: IR77 South Bound Driving Lane Error - - - - - - 31 / 60.9 7/29/2014 6:25:00 AM
82-IR77 MM 36 (200081) Status Air Temp Sfc Temp Sub Temp Dew Temp Wind Precip Traffic Updated
Sensor [A]: Atmospheric - 56.1 - - 51.8 - - - 7/29/2014 6:26:00 AM
Sensor [0]: IR77 North Bound Driving Lane Error - - - - - - 27 / 64.0 7/29/2014 6:26:00 AM
Sensor [1]: IR77 North Bound Passing Lane Dry - 64.4 - - - - 6 / 62.8 7/29/2014 6:26:00 AM
Sensor [2]: IR77 South Bound Passing Lane Error - - - - - - 34 / 62.8 7/29/2014 6:26:00 AM
Sensor [3]: IR77 South Bound Driving Lane Error - - - - - - 39 / 60.3 7/29/2014 6:26:00 AM
83-IR77 MM 59 **Under Construction** (200082) Status Air Temp Sfc Temp Sub Temp Dew Temp Wind Precip Traffic Updated
Sensor [A]: Atmospheric - 52.2 - - 50.7 - - - 7/29/2014 6:33:27 AM
84-IR77 MM 93 UNDER CONSTRUCTION (200083) Status Air Temp Sfc Temp Sub Temp Dew Temp Wind Precip Traffic Updated
Sensor [A]: Atmospheric - 50.2 - - 48.2 - - - 7/29/2014 6:25:00 AM
Sensor [0]: IR77 North Bound Driving Lane Error - - 53.1 - - - 0 / 52.8 7/29/2014 6:25:00 AM
Sensor [1]: IR77 North Bound Passing Lane Error - - - - - - 0 / 6.8 7/29/2014 6:25:00 AM
Sensor [2]: IR77 South Bound Passing Lane Bridge Error - - - - - - 0 / 9.9 7/29/2014 6:25:00 AM
Sensor [3]: IR77 South Bound Driving Lane Bridge Error - - - - - - 64 / 65.2 7/29/2014 6:25:00 AM
85-SR2 @ Huron River (200084) Status Air Temp Sfc Temp Sub Temp Dew Temp Wind Precip Traffic Updated
Sensor [A]: Atmospheric - 56.7 - - 48.9 2.5 / SE - - 7/29/2014 6:33:37 AM
Sensor [1]: SR2 WB Passing Lane Dry - 60.1 - - - - 1 / 5.0 7/29/2014 6:33:37 AM
Sensor [2]: SR2 WB Driving Lane Dry - 60.8 - - - - 38 / 62.1 7/29/2014 6:33:37 AM
86-IR90 @ SR57 (200085) Status Air Temp Sfc Temp Sub Temp Dew Temp Wind Precip Traffic Updated
Sensor [A]: Atmospheric - 59.7 - - 48.2 - - - 7/29/2014 6:25:00 AM
Sensor [0]: I-90 East Bound Driving Lane Error - - 32.2 - - - 34 / 6.2 7/29/2014 6:25:00 AM
Sensor [1]: I-90 West Bound Driving Lane Error - - - - - - 0 / 5.0 7/29/2014 6:25:00 AM
87-IR90 ATB/LAKE (200086) Status Air Temp Sfc Temp Sub Temp Dew Temp Wind Precip Traffic Updated
Sensor [A]: Atmospheric - 59.2 - - 49.1 1.2 / NE - - 7/29/2014 6:33:38 AM
Sensor [1]: I90 Eastbound Passing Lane Dry - 60.1 - - - - 2 / 5.0 7/29/2014 6:33:38 AM
88-IR90 @ SR11 (200087) Status Air Temp Sfc Temp Sub Temp Dew Temp Wind Precip Traffic Updated
Sensor [A]: Atmospheric - 61.0 - - 50.0 3.7 / W - - 7/29/2014 6:25:00 AM
Sensor [0]: I-90 East Bound Driving Lane Error - - 32.9 - - - 0 / 158.4 7/29/2014 6:25:00 AM
Sensor [1]: I-90 East Bound Passing Lane Dry - 65.1 - - - - 6 / 65.2 7/29/2014 6:25:00 AM
Sensor [2]: I-90 West Bound Passing Lane Dry - 63.1 - - - - 8 / 64.0 7/29/2014 6:25:00 AM
Sensor [3]: I-90 West Bound Driving Lane Error - - - - - - 55 / 57.2 7/29/2014 6:25:00 AM
Sensor [4]: SR 11 South Bound Bridge over I-90 Error - - - - - - 0 / 16.8 7/29/2014 6:25:00 AM
89-IR90 @ PA Line (200088) Status Air Temp Sfc Temp Sub Temp Dew Temp Wind Precip Traffic Updated
Sensor [A]: Atmospheric - 42.6 - - 35.6 3.1 / S - - 4/12/2012 8:59:00 AM
Sensor [0]: Pavement Sensors Removed for Construction Error - - 48.2 - - - 832 / 57.2 4/12/2012 8:59:00 AM
Sensor [1]: Pavement Sensors Removed for Construction Error - - - - - - 679 / 28.0 4/12/2012 8:59:00 AM
Sensor [2]: Pavement Sensors Removed for Construction Error - - - - - - 727 / 23.0 4/12/2012 8:59:00 AM
Sensor [3]: Pavement Sensors Removed for Construction Error - - - - - - 0 / 16.8 4/12/2012 8:59:00 AM
90-IR80 @ PA Line (200089) Status Air Temp Sfc Temp Sub Temp Dew Temp Wind Precip Traffic Updated
Sensor [A]: Atmospheric - 57.0 - - 50.0 1.9 / SW - - 7/29/2014 6:25:00 AM
Sensor [0]: I-80 East Bound Driving Lane Error - - 54.3 - - - 21 / 49.1 7/29/2014 6:25:00 AM
Sensor [1]: I-80 East Bound Passing Lane Error - - - - - - 0 / 47.8 7/29/2014 6:25:00 AM
Sensor [2]: I-80 West Bound Passing Lane Error - - - - - - 0 / 9.9 7/29/2014 6:25:00 AM
91-IR76 MAH/POR (200090) Status Air Temp Sfc Temp Sub Temp Dew Temp Wind Precip Traffic Updated
Sensor [A]: Atmospheric - 55.2 - - 48.6 3.7 / W - - 7/29/2014 6:33:40 AM
Sensor [1]: I-76 East Bound Passing Lane Dry - 60.8 - - - - 22 / 55.9 7/29/2014 6:33:40 AM
Sensor [2]: I-76 West Bound Passing Lane Bridge Dry - 58.3 - - - - 17 / 64.0 7/29/2014 6:33:40 AM
92-IR76 POR/SUM (200091) Status Air Temp Sfc Temp Sub Temp Dew Temp Wind Precip Traffic Updated
Sensor [A]: Atmospheric - 53.8 - - 48.4 3.7 / SW - - 7/29/2014 6:30:39 AM
Sensor [0]: I-76 East Bound Driving Lane Bridge Dry - 57.2 - - - - 0 / 65.2 7/29/2014 6:30:39 AM
Sensor [1]: I-76 East Bound Passing Lane Bridge Dry - 56.3 - - - - 43 / 5.0 7/29/2014 6:30:39 AM
94-SR11 ATB/TRUM (200093) Status Air Temp Sfc Temp Sub Temp Dew Temp Wind Precip Traffic Updated
Sensor [A]: Atmospheric - 57.6 - - 53.6 - - - 7/29/2014 6:27:00 AM
Sensor [0]: SR11 North Bound Driving Lane Dry - 64.4 65.8 - - - 17 / 62.8 7/29/2014 6:27:00 AM
Sensor [1]: SR11 North Bound Passing Lane Error - - - - - - 2 / 9.9 7/29/2014 6:27:00 AM
Sensor [2]: SR11 South Bound Passing Lane Error - - - - - - 3 / 65.2 7/29/2014 6:27:00 AM
Sensor [3]: SR11 South Bound Driving Lane Dry - 64.4 - - - - 10 / 65.2 7/29/2014 6:27:00 AM
95-SR11 MAH/COL (200094) Status Air Temp Sfc Temp Sub Temp Dew Temp Wind Precip Traffic Updated
Sensor [A]: Atmospheric - 55.6 - - 50.0 - - - 7/29/2014 6:25:00 AM
Sensor [0]: SR11 North Bound Driving Lane Error - - 45.5 - - - 0 / 64.0 7/29/2014 6:25:00 AM
Sensor [2]: SR11 South Bound Passing Lane Error - - - - - - 6 / 60.9 7/29/2014 6:25:00 AM
Sensor [3]: SR11 South Bound Driving Lane Error - - - - - - 0 / 65.2 7/29/2014 6:25:00 AM
97-SR315 @ I270 (200096) Status Air Temp Sfc Temp Sub Temp Dew Temp Wind Precip Traffic Updated
Sensor [A]: Atmospheric - 56.8 - - 55.8 1.9 / SE - - 7/29/2014 6:30:07 AM
Sensor [2]: I270W Driving Lane Dry - 58.1 - - - - 6 / 60.3 7/29/2014 6:30:07 AM
Sensor [5]: IR Ice Detection Sensor Dry - - - - - - - 7/29/2014 6:30:07 AM
98-I270 SB Ramp to SR161 EB (200097) Status Air Temp Sfc Temp Sub Temp Dew Temp Wind Precip Traffic Updated
Sensor [A]: Atmospheric - 55.6 - - 53.6 - - - 7/29/2014 6:30:47 AM
Sensor [4]: SR161 WB Passing Lane Deck Dry - 56.3 - - - - 0 / 60.3 7/29/2014 6:30:47 AM
Sensor [5]: SR161 WB Driving Lane Dry - 57.2 - - - - 0 / 62.1 7/29/2014 6:30:47 AM
99-US30 @ Dalton (200098) Status Air Temp Sfc Temp Sub Temp Dew Temp Wind Precip Traffic Updated
Sensor [A]: Atmospheric - 49.8 - - 48.2 0.6 / NW - - 7/29/2014 6:26:00 AM
Sensor [0]: US30E Driving Lane Error - - 61.3 - - - 0 / 50.3 7/29/2014 6:26:00 AM
Sensor [1]: US30E Passing Lane Trace Moisture - 57.2 - - - - 19 / 57.2 7/29/2014 6:26:00 AM
Sensor [2]: US30W Passing Lane - Bridgedeck Trace Moisture - 50.5 - - - - 7 / 54.1 7/29/2014 6:26:00 AM
Sensor [3]: US30W Driving Lane - Bridgedeck Error - - - - - - 761 / 62.1 7/29/2014 6:26:00 AM
100-SR225 @ Berlin Reservoir (200099) Status Air Temp Sfc Temp Sub Temp Dew Temp Wind Precip Traffic Updated
Sensor [A]: Atmospheric - 66.2 - - 62.6 0.6 / W Rain / 0.0 - 5/12/2014 3:07:00 PM
Sensor [0]: SR225 NB Lane Error - - 72.7 - - - 0 / 65.2 5/12/2014 3:07:00 PM
Sensor [1]: SR225 SB Lane - Bridge Error - - - - - - 4 / 9.9 5/12/2014 3:07:00 PM
101-SR45 @ Rock Creek (200100) Status Air Temp Sfc Temp Sub Temp Dew Temp Wind Precip Traffic Updated
Sensor [A]: Atmospheric - 56.8 - - 53.8 - - - 7/29/2014 6:23:46 AM
102-SR7 @ SR167 East (200101) Status Air Temp Sfc Temp Sub Temp Dew Temp Wind Precip Traffic Updated
Sensor [A]: Atmospheric - 36.1 - - 32.0 3.7 / NE - - 11/26/2013 11:55:00 AM
Sensor [0]: SR7 NB Lane Error - - - - - - 6 / 42.3 11/26/2013 11:55:00 AM
Sensor [1]: SR7 SB Lane - Bridge Error - - - - - - 0 / 5.0 11/26/2013 11:55:00 AM
103- I-70 @ SR-79 (200102) Status Air Temp Sfc Temp Sub Temp Dew Temp Wind Precip Traffic Updated
Sensor [A]: Atmospheric - - - - - - - - 7/29/2014 6:31:05 AM
Sensor [4]: I 79 NB Bridgedeck Dry - 56.3 - - - - - 7/29/2014 6:31:05 AM
104-SR 3 KNOX/Ashland (200103) Status Air Temp Sfc Temp Sub Temp Dew Temp Wind Precip Traffic Updated
Sensor [A]: Atmospheric - 47.3 - - 46.4 - - - 7/29/2014 6:28:00 AM
Sensor [0]: SR3 NB Lane Dry - 62.1 72.3 - - - 6 / 57.8 7/29/2014 6:28:00 AM
Sensor [1]: SR3 SB Lane Error - - - - - - 4 / 55.3 7/29/2014 6:28:00 AM
105-IR70/IR75 (200104) Status Air Temp Sfc Temp Sub Temp Dew Temp Wind Precip Traffic Updated
Sensor [A]: Atmospheric - 53.6 - - 44.1 5.0 / NW - - 7/29/2014 6:31:02 AM
Sensor [0]: I70WB Driving Departure Dry - 58.1 - - - - 12 / 60.3 7/29/2014 6:31:02 AM
Sensor [3]: I75SB Passing Dry - 58.8 - - - - 24 / 65.2 7/29/2014 6:31:02 AM
106-SR39 @ Sugarcreek (200105) Status Air Temp Sfc Temp Sub Temp Dew Temp Wind Precip Traffic Updated
Sensor [A]: Atmospheric - 53.8 - - 51.8 - - - 7/29/2014 6:27:00 AM
Sensor [0]: SR39 EB Lane Error - - - - - - 6 / 51.0 7/29/2014 6:27:00 AM
Sensor [1]: SR39 WB Lane Error - - 78.4 - - - 131 / 47.8 7/29/2014 6:27:00 AM
107-US250 @ Ulrichsville (200106) Status Air Temp Sfc Temp Sub Temp Dew Temp Wind Precip Traffic Updated
Sensor [A]: Atmospheric - 51.6 - - 50.9 - - - 7/29/2014 6:33:29 AM
108-SR183 @ Minerva (200107) Status Air Temp Sfc Temp Sub Temp Dew Temp Wind Precip Traffic Updated
Sensor [A]: Atmospheric - 52.5 - - 50.0 0.6 / SW - - 7/29/2014 6:25:00 AM
Sensor [0]: SR183 NB Lane - Bridgedeck Error - - 79.7 - - - 9 / 70.8 7/29/2014 6:25:00 AM
Sensor [1]: SR183 SB Lane Error - - - - - - 4 / 9.9 7/29/2014 6:25:00 AM
109-SR22 @ SR151 (200108) Status Air Temp Sfc Temp Sub Temp Dew Temp Wind Precip Traffic Updated
Sensor [A]: Atmospheric - 51.1 - - 49.3 1.2 / SW - - 7/29/2014 6:33:33 AM
Sensor [0]: SR22E Driving Lane Wet - 49.1 59.0 - - - 19 / 67.1 7/29/2014 6:33:33 AM
Sensor [1]: SR22W Passing Lane Dry - 52.7 - - - - 2 / 73.9 7/29/2014 6:33:33 AM
110-SR7 @ SR213 (200109) Status Air Temp Sfc Temp Sub Temp Dew Temp Wind Precip Traffic Updated
Sensor [A]: Atmospheric - 50.9 - - 50.0 - - - 7/29/2014 6:29:00 AM
Sensor [0]: SR7 NB Driving Error - - 37.8 - - - 6 / 42.3 7/29/2014 6:29:00 AM
Sensor [1]: SR7 NB Passing Trace Moisture - 54.9 - - - - 0 / 47.2 7/29/2014 6:29:00 AM
Sensor [2]: SR7 SB Passing Departure Error - - - - - - 0 / 57.2 7/29/2014 6:29:00 AM
Sensor [3]: SR7 SB Driving Departure Error - - - - - - 12 / 44.7 7/29/2014 6:29:00 AM
Sensor [4]: SR7 NB Driving Bridgedeck Trace Moisture - 51.8 - - - - - 7/29/2014 6:29:00 AM
Sensor [5]: SR7 SB Passing Bridgedeck Error - - - - - - - 7/29/2014 6:29:00 AM
111-I70 MM 114 (200110) Status Air Temp Sfc Temp Sub Temp Dew Temp Wind Precip Traffic Updated
Sensor [A]: Atmospheric - 58.6 - - 53.6 - - - 7/29/2014 6:30:48 AM
Sensor [0]: I70 EB Driving Lane Dry - 61.7 76.1 - - - 86 / 47.8 7/29/2014 6:30:48 AM
Sensor [2]: I70 WB Passing Lane - Bridge Deck Dry - 62.6 - - - - 59 / 67.7 7/29/2014 6:30:48 AM
112-USR 27 @ 21 MM (200111) Status Air Temp Sfc Temp Sub Temp Dew Temp Wind Precip Traffic Updated
Sensor [A]: Atmospheric - 49.1 - - 46.8 1.2 / N - - 7/29/2014 6:31:55 AM
Sensor [0]: SR27 NB Lane Dry - 54.5 68.7 - - - 6 / 60.3 7/29/2014 6:31:55 AM
Sensor [1]: SR27 SB Lane Dry - 54.5 - - - - 17 / 47.2 7/29/2014 6:31:55 AM
113-I-275 @ USR 52 (200112) Status Air Temp Sfc Temp Sub Temp Dew Temp Wind Precip Traffic Updated
Sensor [A]: Atmospheric - 57.2 - - 51.3 1.9 / E - - 7/29/2014 3:20:12 AM
Sensor [1]: I275N Passing Lane Dry - 56.3 - - - - 35 / 62.8 7/29/2014 3:20:12 AM
Sensor [2]: I275S Passing Lane - Bridgedeck Dry - 56.3 - - - - 69 / 60.9 7/29/2014 3:20:12 AM
Sensor [4]: I275 SB Driving Lane - Bridge Deck Dry - 58.1 - - - - 64 / 60.3 7/29/2014 3:20:12 AM
114-IR71 @ US36 (38000) Status Air Temp Sfc Temp Sub Temp Dew Temp Wind Precip Traffic Updated
Sensor [A]: Atmospheric - 56.3 - - 51.1 - - - 7/29/2014 6:30:50 AM
Sensor [0]: I71 SB Driving Dry - 59.9 - - - - - 7/29/2014 6:30:50 AM
Sensor [2]: US36 WB Deck Dry - 58.1 - - - - - 7/29/2014 6:30:50 AM
115-IR71 @ Schrock Road (38001) Status Air Temp Sfc Temp Sub Temp Dew Temp Wind Precip Traffic Updated
Sensor [A]: Atmospheric - 57.2 - - 57.0 - - - 7/29/2014 6:30:52 AM
Sensor [0]: Schrock Rd Dry - 63.0 - - - - - 7/29/2014 6:30:52 AM
Sensor [1]: Schrock Rd Deck Dry - 59.9 - - - - - 7/29/2014 6:30:52 AM
116-IR70W @ I270 (38004) Status Air Temp Sfc Temp Sub Temp Dew Temp Wind Precip Traffic Updated
Sensor [A]: Atmospheric - -41.1 - - - 1.9 / NE - - 7/29/2014 6:30:53 AM
Sensor [0]: I-70 EB Drive Error - - - - - - - 7/29/2014 6:30:53 AM
117-IR70 @ SR29 (38005) Status Air Temp Sfc Temp Sub Temp Dew Temp Wind Precip Traffic Updated
Sensor [A]: Atmospheric - 54.1 - - 47.7 1.9 / NW - - 7/29/2014 6:30:55 AM
Sensor [0]: OH29 NB Drive Error - - - - - - - 7/29/2014 6:30:55 AM
Sensor [1]: OH29 NB Deck Error - - - - - - - 7/29/2014 6:30:55 AM
Sensor [2]: I-70 WB Drive Dry - 59.7 - - - - - 7/29/2014 6:30:55 AM
Sensor [3]: I-70 EB Passing Error - - - - - - - 7/29/2014 6:30:55 AM
118-IR70/IR71/SR315 (38006) Status Air Temp Sfc Temp Sub Temp Dew Temp Wind Precip Traffic Updated
Sensor [A]: Atmospheric - 60.3 - - 53.6 - - - 7/29/2014 6:14:27 AM
Sensor [0]: I-71 / OH315 NB Deck Dry - 66.6 - - - - - 7/29/2014 6:14:27 AM
Sensor [1]: I70 EB to SR315 Ramp Trace Moisture - 65.3 - - - - - 7/29/2014 6:14:27 AM
119-IR71S @ I270 (38007) Status Air Temp Sfc Temp Sub Temp Dew Temp Wind Precip Traffic Updated
Sensor [A]: Atmospheric - 33.1 - - 23.2 7.5 / N - - 1/20/2014 7:31:46 AM
Sensor [2]: I270 EB Passing Error - - - - - - - 1/20/2014 7:31:46 AM
120-US33 @ Hamilton Road (38010) Status Air Temp Sfc Temp Sub Temp Dew Temp Wind Precip Traffic Updated
Sensor [A]: Atmospheric - 60.4 - - 49.3 1.9 / W - - 7/29/2014 6:31:20 AM
Sensor [1]: US33 EB Passing Dry - 62.6 - - - - - 7/29/2014 6:31:20 AM
121-I-670 Over Airport Connector (38014) Status Air Temp Sfc Temp Sub Temp Dew Temp Wind Precip Traffic Updated
Sensor [A]: Atmospheric - 57.6 - - 52.7 1.9 / N - - 7/29/2014 6:31:23 AM
Sensor [0]: Airport Con Driving REMOVED FOR CONSTRUCTION Error - - - - - - - 7/29/2014 6:31:23 AM
Sensor [1]: Airport Con Deck Dry - 61.2 - - - - - 7/29/2014 6:31:23 AM
Sensor [2]: I-670 EB Passing Dry - 62.1 - - - - - 7/29/2014 6:31:23 AM
Sensor [3]: I-670 WB Passing Dry - 61.5 - - - - - 7/29/2014 6:31:23 AM
122-Medina Line Rd. Over I-271 (612000) Status Air Temp Sfc Temp Sub Temp Dew Temp Wind Precip Traffic Updated
Sensor [A]: Atmospheric - 52.2 - - 48.9 - - - 7/29/2014 6:30:07 AM
Sensor [0]: SB Bridge Dry - 57.4 - - - - - 7/29/2014 6:30:07 AM
Sensor [1]: SB Road Error - - - - - - - 7/29/2014 6:30:07 AM
123-Steels Corner Rd. /Mud Creek (612003) Status Air Temp Sfc Temp Sub Temp Dew Temp Wind Precip Traffic Updated
Sensor [A]: Atmospheric - 54.1 - - 52.5 - - - 7/29/2014 6:30:08 AM
Sensor [0]: WB Bridge Dry - 59.7 - - - - - 7/29/2014 6:30:08 AM
Sensor [1]: WB Road Error - - 127.0 - - - - 7/29/2014 6:30:08 AM
124-Old Mill Rd. Over I-480 (612004) Status Air Temp Sfc Temp Sub Temp Dew Temp Wind Precip Traffic Updated
Sensor [A]: Atmospheric - 54.5 - - 52.7 0.6 / SW - - 7/29/2014 6:30:12 AM
Sensor [1]: I-480 East Bound Passing Lane Dry - 58.1 - - - - - 7/29/2014 6:30:12 AM
125-Ridgewood Rd. Over Rt 21 (612006) Status Air Temp Sfc Temp Sub Temp Dew Temp Wind Precip Traffic Updated
Sensor [A]: Atmospheric - 52.5 - - 51.1 1.2 / SW - - 7/29/2014 6:30:14 AM
Sensor [0]: EB Bridge Deck Error - - - - - - - 7/29/2014 6:30:14 AM
126-Killian Rd. Over I-77 (612011) Status Air Temp Sfc Temp Sub Temp Dew Temp Wind Precip Traffic Updated
Sensor [A]: Atmospheric - 53.4 - - 49.6 1.2 / W - - 7/29/2014 6:30:16 AM
Sensor [0]: EB Bridge Dry - 55.2 75.6 - - - - 7/29/2014 6:30:16 AM
127-US 6 Williams County (582000) Status Air Temp Sfc Temp Sub Temp Dew Temp Wind Precip Traffic Updated
Sensor [A]: Atmospheric - 47.7 - - - 1.9 / SW - - 7/29/2014 6:30:17 AM
Sensor [0]: US-6 EB Lane Dry - 52.7 - - - - 2 / 49.1 7/29/2014 6:30:17 AM
Sensor [2]: US6 EB Dry - 57.0 76.1 - - - - 7/29/2014 6:30:17 AM
128-US 20 @ SLM 1.5 ***Under Construction*** (582001) Status Air Temp Sfc Temp Sub Temp Dew Temp Wind Precip Traffic Updated
Sensor [A]: Atmospheric - 48.9 - - 47.8 1.9 / W - - 7/29/2014 6:30:19 AM
129-US 20 @ SLM 11.5 (582002) Status Air Temp Sfc Temp Sub Temp Dew Temp Wind Precip Traffic Updated
Sensor [A]: Atmospheric - 47.7 - - 47.5 - - - 7/29/2014 6:30:21 AM
Sensor [2]: SR-20A WB Approach Dry - 56.8 80.4 - - - - 7/29/2014 6:30:21 AM
Sensor [3]: SR-20A WB Deck Dry - 57.4 - - - - - 7/29/2014 6:30:21 AM
130-US 20A @ SLM 2.5 Fulton (582003) Status Air Temp Sfc Temp Sub Temp Dew Temp Wind Precip Traffic Updated
Sensor [A]: Atmospheric - 46.8 - - -7.1 - Rain / 0.0 - 7/29/2014 6:30:24 AM
Sensor [0]: US-20 EB Deck Dry - 56.5 - - - - - 7/29/2014 6:30:24 AM
Sensor [1]: US-20 EB Approach Dry - 61.9 - - - - - 7/29/2014 6:30:24 AM
131-US 20 @ SLM 9.5 Fulton (582004) Status Air Temp Sfc Temp Sub Temp Dew Temp Wind Precip Traffic Updated
Sensor [A]: Atmospheric - 44.8 - - - - - - 7/29/2014 6:30:25 AM
Sensor [0]: US-20 WB Deck Dry - 52.9 - - - - - 7/29/2014 6:30:25 AM
Sensor [1]: US-20 EB Approach Dry - 58.6 - - - - - 7/29/2014 6:30:25 AM
132-SR 64 @ SLM 6.0 Fulton (582005) Status Air Temp Sfc Temp Sub Temp Dew Temp Wind Precip Traffic Updated
Sensor [A]: Atmospheric - 47.1 - - 46.8 3.1 / SW - - 7/29/2014 6:30:27 AM
133-US 6 @ SLM .5 (582006) Status Air Temp Sfc Temp Sub Temp Dew Temp Wind Precip Traffic Updated
Sensor [A]: Atmospheric - 48.9 - - 48.4 0.6 / SW - - 7/29/2014 6:30:28 AM
Sensor [0]: US-6 WB Dry - 57.9 66.2 - - - - 7/29/2014 6:30:28 AM
134-SR 108 @ SLM .5 (582007) Status Air Temp Sfc Temp Sub Temp Dew Temp Wind Precip Traffic Updated
Sensor [A]: Atmospheric - 48.4 - - 46.9 3.1 / W - - 7/29/2014 6:30:08 AM
Sensor [0]: SR-108 NB Dry - 50.9 82.6 - - - - 7/29/2014 6:30:08 AM
135-US Rt 6 @ Maumee River (582008) Status Air Temp Sfc Temp Sub Temp Dew Temp Wind Precip Traffic Updated
Sensor [A]: Atmospheric - 52.2 - - 52.2 1.2 / NW - - 7/29/2014 6:30:09 AM
Sensor [0]: US-6 EB Deck Error - 55.8 - - - - - 7/29/2014 6:30:09 AM
Sensor [1]: US-6 WB Deck Error - - - - - - - 7/29/2014 6:30:09 AM
136-Rt 65 South Henry County (582009) Status Air Temp Sfc Temp Sub Temp Dew Temp Wind Precip Traffic Updated
Sensor [A]: Atmospheric - 46.9 - - 45.3 3.1 / W - - 7/29/2014 6:30:11 AM
Sensor [0]: SR-65 NB Dry - 52.7 - - - - - 7/29/2014 6:30:11 AM
137 - SR 64 @ SLM 7.5 Lucas (582010) Status Air Temp Sfc Temp Sub Temp Dew Temp Wind Precip Traffic Updated
Sensor [A]: Atmospheric - 47.8 - - 47.5 - - - 7/29/2014 6:30:12 AM
Sensor [0]: SR-64 EB Approach Dry - 58.5 - - - - - 7/29/2014 6:30:12 AM
Sensor [1]: SR-64 EB @ RPU Dry - 59.2 - - - - - 7/29/2014 6:30:12 AM
138-US 24 near Grand Rapids (582011) Status Air Temp Sfc Temp Sub Temp Dew Temp Wind Precip Traffic Updated
Sensor [A]: Atmospheric - 50.9 - - 50.7 1.2 / N - - 7/29/2014 6:30:15 AM
Sensor [0]: SR-578 SB Maumee River Dry - 57.9 81.5 - - - - 7/29/2014 6:30:15 AM
Sensor [1]: SR-578 SB Dry - 61.0 - - - - - 7/29/2014 6:30:15 AM
139-I-80 & I-475 Lucas ***Under Construction*** (582012) Status Air Temp Sfc Temp Sub Temp Dew Temp Wind Precip Traffic Updated
Sensor [A]: Atmospheric - 72.1 - - 71.6 1.9 / SW - - 10/3/2013 12:40:42 PM
Sensor [0]: I-475 NB Deck Dry - 77.0 - - - - - 10/3/2013 12:40:42 PM
Sensor [1]: I-475 SB Approach Error - - - - - - - 10/3/2013 12:40:42 PM
140-IR 475 @ US 23 Split ***Under Construction*** (582013) Status Air Temp Sfc Temp Sub Temp Dew Temp Wind Precip Traffic Updated
Sensor [A]: Atmospheric - 50.4 - - 49.8 1.2 / NW - - 7/29/2014 6:30:34 AM
Sensor [6]: US-23 NB Pass Ln Deck Dry - 54.5 - - - - 2 / 5.0 7/29/2014 6:30:34 AM
141-IR 75 @ SLM 4.9 475 Split (582014) Status Air Temp Sfc Temp Sub Temp Dew Temp Wind Precip Traffic Updated
Sensor [A]: Atmospheric - 52.5 - - 52.2 3.1 / W - - 7/29/2014 6:30:09 AM
Sensor [1]: I-75 SB Dry - 54.5 - - - - - 7/29/2014 6:30:09 AM
Sensor [2]: I-475 EB Deck Dry - 56.3 - - - - - 7/29/2014 6:30:09 AM
Sensor [3]: I-475 EB Departure Dry - 57.2 - - - - - 7/29/2014 6:30:09 AM
142 - I-280 @ Veterans Glass City Skyway (VGCS) (582016) Status Air Temp Sfc Temp Sub Temp Dew Temp Wind Precip Traffic Updated
Sensor [A]: Atmospheric - 54.3 - - 47.5 6.8 / W - - 7/29/2014 6:30:11 AM
Sensor [0]: NB I-280 Driving Lane Dry - 55.8 - - - - 26 / 57.8 7/29/2014 6:30:11 AM
Sensor [1]: NB I-280 Center Lane Dry - 56.3 - - - - 49 / 51.0 7/29/2014 6:30:11 AM
Sensor [4]: SB I-280 Center Lane Dry - 55.0 - - - - 29 / 62.1 7/29/2014 6:30:11 AM
143-SR 2 @ MP 31.8 Lucas (582017) Status Air Temp Sfc Temp Sub Temp Dew Temp Wind Precip Traffic Updated
Sensor [A]: Atmospheric - 53.6 - - 48.4 - - - 7/29/2014 6:30:13 AM
144-IR 75 & Eagleville Rd. (582018) Status Air Temp Sfc Temp Sub Temp Dew Temp Wind Precip Traffic Updated
Sensor [A]: Atmospheric - 51.1 - - 49.1 1.9 / SW - - 7/29/2014 6:30:14 AM
Sensor [0]: I-75 NB Deck Error - - - - - - - 7/29/2014 6:30:14 AM
Sensor [1]: I-75 SB Deck Error - - - - - - - 7/29/2014 6:30:14 AM
145-IR 75 @ SLM 18.36 Wood (582019) Status Air Temp Sfc Temp Sub Temp Dew Temp Wind Precip Traffic Updated
Sensor [A]: Atmospheric - 50.9 - - 48.4 3.1 / W - - 7/29/2014 6:30:16 AM
Sensor [0]: I-75 NB Approach Error - 56.5 - - - - - 7/29/2014 6:30:16 AM
Sensor [1]: I-75 SB Deck Dry - 53.6 - - - - - 7/29/2014 6:30:16 AM
146-I-75 @ I-475 Wood ***Under Construction*** (582020) Status Air Temp Sfc Temp Sub Temp Dew Temp Wind Precip Traffic Updated
Sensor [A]: Atmospheric - 48.9 - - 28.8 3.1 / W - - 7/29/2014 6:30:22 AM
147-I-75 @ I-80 Wood County (582021) Status Air Temp Sfc Temp Sub Temp Dew Temp Wind Precip Traffic Updated
Sensor [A]: Atmospheric - 72.9 - - 57.2 5.6 / NE - - 7/24/2014 12:40:31 PM
Sensor [0]: I-75 NB Deck Dry - 93.9 - - - - - 7/24/2014 12:40:31 PM
Sensor [1]: I-75 SB Deck Error - - - - - - - 7/24/2014 12:40:31 PM
148-US-6 @ Rt. 23 (582022) Status Air Temp Sfc Temp Sub Temp Dew Temp Wind Precip Traffic Updated
Sensor [A]: Atmospheric - 51.1 - - 49.3 1.2 / SW - - 7/29/2014 6:30:42 AM
149-US-20 @ Lemoyne Rd. (582023) Status Air Temp Sfc Temp Sub Temp Dew Temp Wind Precip Traffic Updated
Sensor [A]: Atmospheric - 55.0 - - 54.3 2.5 / W - - 7/29/2014 6:30:47 AM
150-I-280 @ Libbey Rd. (582024) Status Air Temp Sfc Temp Sub Temp Dew Temp Wind Precip Traffic Updated
Sensor [A]: Atmospheric - 51.6 - - 47.1 0.6 / SW - - 7/29/2014 6:30:54 AM
151-SR 2 @ Portage River Bridge (582025) Status Air Temp Sfc Temp Sub Temp Dew Temp Wind Precip Traffic Updated
Sensor [A]: Atmospheric - 58.6 - - 51.8 3.7 / W - - 7/29/2014 6:30:56 AM
Sensor [0]: SR-2 EB Departure Dry - 65.7 79.9 - - - - 7/29/2014 6:30:56 AM
Sensor [1]: SR-2 WB Deck Frost - 18.9 - - - - - 7/29/2014 6:30:56 AM
152-SR-2@28.5 Bay Br. (582026) Status Air Temp Sfc Temp Sub Temp Dew Temp Wind Precip Traffic Updated
Sensor [A]: Atmospheric - 63.1 - - 58.8 8.7 / SW - - 7/29/2014 6:30:58 AM
153-US-20 @ Sugar Creek (582027) Status Air Temp Sfc Temp Sub Temp Dew Temp Wind Precip Traffic Updated
Sensor [A]: Atmospheric - 48.7 - - 48.4 0.6 / SW - - 7/29/2014 6:30:06 AM
Sensor [0]: US-20 EB Driving Dry - 54.5 63.5 - - - 13 / 57.2 7/29/2014 6:30:06 AM
Sensor [1]: US-20 WB Passing Dry - 54.5 - - - - 10 / 55.3 7/29/2014 6:30:06 AM
Sensor [2]: US-20 EB Driving BridgeDeck Dry - 54.5 - - - - 0 / 0.0 7/29/2014 6:30:06 AM
154-US-6 @ Sandusky River Br (582028) Status Air Temp Sfc Temp Sub Temp Dew Temp Wind Precip Traffic Updated
Sensor [A]: Atmospheric - 66.9 - - 66.4 1.9 / W - - 5/14/2014 1:40:09 AM
Sensor [0]: US-6 EB Approach Error - 70.2 - - - - - 5/14/2014 1:40:09 AM
Sensor [1]: US-6 WB Deck Dry - 72.9 - - - - - 5/14/2014 1:40:09 AM
155-US 6 @ Pickeral Creek (582029) Status Air Temp Sfc Temp Sub Temp Dew Temp Wind Precip Traffic Updated
Sensor [A]: Atmospheric - 47.8 - - 45.9 3.7 / W - - 7/29/2014 6:30:26 AM
Sensor [0]: US-6 WB Departure Error - - - - - - - 7/29/2014 6:30:26 AM
Sensor [1]: US-6 WB Deck Error - 52.3 - - - - - 7/29/2014 6:30:26 AM
156-CR 296 & US 20 MP 31.0 (582030) Status Air Temp Sfc Temp Sub Temp Dew Temp Wind Precip Traffic Updated
Sensor [A]: Atmospheric - 54.1 - - 54.1 2.5 / W - - 7/29/2014 6:30:27 AM
Sensor [0]: US-20 WB Dry - 63.0 81.0 - - - - 7/29/2014 6:30:27 AM
157-US 23 @ MP 5.5 Seneca (582031) Status Air Temp Sfc Temp Sub Temp Dew Temp Wind Precip Traffic Updated
Sensor [A]: Atmospheric - 49.5 - - 47.8 5.6 / SW - - 7/29/2014 6:30:30 AM
Sensor [0]: US-23 NB Dry - 59.9 - - - - - 7/29/2014 6:30:30 AM
158-SR 12 @ Mp 7.0 Seneca (582032) Status Air Temp Sfc Temp Sub Temp Dew Temp Wind Precip Traffic Updated
Sensor [A]: Atmospheric - 49.6 - - 48.9 5.0 / W - - 7/29/2014 6:30:32 AM
Sensor [0]: SR-12 WB Dry - 54.5 - - - - - 7/29/2014 6:30:32 AM
159-US 224 @ SR 53 Seneca (582033) Status Air Temp Sfc Temp Sub Temp Dew Temp Wind Precip Traffic Updated
Sensor [A]: Atmospheric - 51.3 - - 49.8 - - - 7/29/2014 6:30:34 AM
Sensor [0]: SR-224 EB Bridge Deck Error - - - - - - - 7/29/2014 6:30:34 AM
Sensor [1]: US-224 EB Approach Error - 62.8 - - - - - 7/29/2014 6:30:34 AM
160-SR 4 @ MP 2.35 Seneca (582034) Status Air Temp Sfc Temp Sub Temp Dew Temp Wind Precip Traffic Updated
Sensor [A]: Atmospheric - 49.6 - - 46.8 4.3 / N - - 7/29/2014 6:30:36 AM
Sensor [0]: SR-4 SB Deck Dry - 50.9 - - - - 0 / 5.0 7/29/2014 6:30:36 AM
161-I-90 @ SR-252 (562000) Status Air Temp Sfc Temp Sub Temp Dew Temp Wind Precip Traffic Updated
Sensor [A]: Atmospheric - 62.2 - - 50.5 6.2 / N - - 7/29/2014 6:30:03 AM
Sensor [0]: SR-252 NB RL over I-90 Dry - 61.7 - - - - - 7/29/2014 6:30:03 AM
Sensor [1]: I-90 WB N2 Lane Dry - 63.5 - - - - - 7/29/2014 6:30:03 AM
Sensor [2]: I-90 EB N1 Lane Dry - 65.3 - - - - - 7/29/2014 6:30:03 AM
162-I-90 @ Abbey Rd. (562001) Status Air Temp Sfc Temp Sub Temp Dew Temp Wind Precip Traffic Updated
Sensor [A]: Atmospheric - - - - - / Unknown - - -
Sensor [0]: I-90 EB N3 Lane Wet - 74.7 82.2 - - - - 8/21/2011 12:10:14 AM
Sensor [2]: I-90 WB N3 Lane Bridge Wet - 71.8 - - - - - 8/21/2011 12:10:14 AM
163-I-90 @ E. 140th (562002) Status Air Temp Sfc Temp Sub Temp Dew Temp Wind Precip Traffic Updated
Sensor [A]: Atmospheric - 62.4 - - 52.0 2.5 / NW - - 7/29/2014 6:30:23 AM
Sensor [1]: I-90 WB N3 Lane Bridge Dry - 64.0 - - - - - 7/29/2014 6:30:23 AM
Sensor [2]: I-90 EB N3 Lane Bridge Dry - 62.6 - - - - - 7/29/2014 6:30:23 AM
164-I-271 @ I-90 (562003) Status Air Temp Sfc Temp Sub Temp Dew Temp Wind Precip Traffic Updated
Sensor [A]: Atmospheric - 64.8 - - 64.6 - - - 7/29/2014 6:30:26 AM
Sensor [0]: I-271 NB TG I-90 EB Dry - 63.7 - - - - - 7/29/2014 6:30:26 AM
Sensor [2]: I-271 NB TG I-90 WB Bridge Dry - 61.0 - - - - - 7/29/2014 6:30:26 AM
Sensor [3]: I-271 NB TG I-90 WB Dry - 63.7 - - - - - 7/29/2014 6:30:26 AM
165-I-480 @ SR-10 (562004) Status Air Temp Sfc Temp Sub Temp Dew Temp Wind Precip Traffic Updated
Sensor [A]: Atmospheric - 57.0 - - 55.0 2.5 / W - - 7/29/2014 6:30:27 AM
Sensor [0]: I-480 EB N2 Lane Bridge Dry - 59.5 - - - - - 7/29/2014 6:30:27 AM
Sensor [1]: I-480 WB N2 Lane Bridge Dry - 59.0 - - - - - 7/29/2014 6:30:27 AM
166-I-71 @ Snow Rd. (562005) Status Air Temp Sfc Temp Sub Temp Dew Temp Wind Precip Traffic Updated
Sensor [A]: Atmospheric - 58.1 - - 55.9 - - - 7/29/2014 6:30:29 AM
Sensor [0]: I-71 NB N3 Lane Bridge Dry - 61.3 - - - - - 7/29/2014 6:30:29 AM
Sensor [1]: I-71 SB N3 Lane Bridge Dry - 60.6 - - - - - 7/29/2014 6:30:29 AM
Sensor [2]: I-71 SB N3 Lane Dry - 61.7 - - - - - 7/29/2014 6:30:29 AM
167-I-77 @ I-480 (562006) Status Air Temp Sfc Temp Sub Temp Dew Temp Wind Precip Traffic Updated
Sensor [A]: Atmospheric - 59.0 - - 56.7 3.7 / S - - 7/29/2014 6:30:31 AM
Sensor [0]: I-77 NB N2L Br @ SR-17 Error - - - - - - - 7/29/2014 6:30:31 AM
Sensor [1]: I-77 SB N2L Br @ SR-17 Error - - - - - - - 7/29/2014 6:30:31 AM
Sensor [3]: I-77 NB RL Br over I-480 Dry - 60.8 - - - - - 7/29/2014 6:30:31 AM
168-I-480 N @ Miles Rd. (562007) Status Air Temp Sfc Temp Sub Temp Dew Temp Wind Precip Traffic Updated
Sensor [A]: Atmospheric - 57.2 - - 53.2 - - - 7/29/2014 6:30:03 AM
Sensor [0]: I-480 N WB N2 Lane Dry - 59.9 - - - - - 7/29/2014 6:30:03 AM
Sensor [1]: I-480 N WB N2 Lane Br Dry - 59.0 - - - - - 7/29/2014 6:30:03 AM
Sensor [2]: I-480 EB N2 Lane Br Dry - 59.0 - - - - - 7/29/2014 6:30:03 AM
169-I-271 @ US-322 (562008) Status Air Temp Sfc Temp Sub Temp Dew Temp Wind Precip Traffic Updated
Sensor [A]: Atmospheric - 59.2 - - 55.8 1.9 / N - - 7/29/2014 6:30:05 AM
Sensor [0]: I-271 SB N2 Lane Br Dry - 60.8 - - - - - 7/29/2014 6:30:05 AM
Sensor [1]: I-271 SB N2 Lane Dry - 62.1 - - - - - 7/29/2014 6:30:05 AM
Sensor [2]: I-271 NB N2 Lane Br Dry - 60.8 - - - - - 7/29/2014 6:30:05 AM
Sensor [3]: I-271 NB N2 Lane Dry - 63.3 - - - - - 7/29/2014 6:30:05 AM
170-I-71 @ Drake Rd. (562009) Status Air Temp Sfc Temp Sub Temp Dew Temp Wind Precip Traffic Updated
Sensor [A]: Atmospheric - 55.9 - - 50.7 1.2 / NW - - 7/29/2014 6:30:06 AM
Sensor [0]: I-71 NB N2 Lane Dry - 61.7 74.7 - - - - 7/29/2014 6:30:06 AM
Sensor [1]: I-71 NB N2 Lane Br Dry - 58.8 - - - - - 7/29/2014 6:30:06 AM
Sensor [2]: I-71 SB N2 Lane Br Dry - 60.6 - - - - - 7/29/2014 6:30:06 AM
171-I-77 @ SR-82 (562010) Status Air Temp Sfc Temp Sub Temp Dew Temp Wind Precip Traffic Updated
Sensor [A]: Atmospheric - 56.8 - - 52.5 1.9 / SW - - 7/29/2014 6:30:08 AM
Sensor [0]: I-77 NB N2 Lane Br Dry - 59.0 - - - - - 7/29/2014 6:30:08 AM
Sensor [1]: I-77 SB N2 Lane Br Dry - 58.1 - - - - - 7/29/2014 6:30:08 AM
Sensor [2]: I-77 SB N2 Lane Dry - 60.8 - - - - - 7/29/2014 6:30:08 AM
172-US-422 @ Chagrin Blvd. (562011) Status Air Temp Sfc Temp Sub Temp Dew Temp Wind Precip Traffic Updated
Sensor [A]: Atmospheric - 55.2 - - 52.5 0.6 / NE - - 7/29/2014 6:30:12 AM
Sensor [0]: US-422 WB N2 Lane Dry - 60.6 73.4 - - - - 7/29/2014 6:30:12 AM
Sensor [1]: US-422 WB N2 Lane Br Dry - 58.6 - - - - - 7/29/2014 6:30:12 AM
Sensor [2]: US-422 EB N2 Lane Br Dry - 57.9 - - - - - 7/29/2014 6:30:12 AM
173-US-422 @ SR-44 (562012) Status Air Temp Sfc Temp Sub Temp Dew Temp Wind Precip Traffic Updated
Sensor [A]: Atmospheric - 55.0 - - 51.1 0.6 / SW - - 7/29/2014 6:30:13 AM
Sensor [2]: US-422 EB N2 Lane Br Dry - 54.5 - - - - - 7/29/2014 6:30:13 AM
174- SR-528 @SR-87 (562013) Status Air Temp Sfc Temp Sub Temp Dew Temp Wind Precip Traffic Updated
Sensor [A]: Atmospheric - 55.6 - - 55.6 1.9 / NW - - 7/29/2014 6:30:02 AM
Sensor [1]: SR-87 WB E of SR-528 Dry - 59.9 - - - - - 7/29/2014 6:30:02 AM
Sensor [2]: SR-528 SB N of SR-87 Wet - 59.0 - - - - - 7/29/2014 6:30:02 AM
175-SR-44 @ Mentor Rd. (562014) Status Air Temp Sfc Temp Sub Temp Dew Temp Wind Precip Traffic Updated
Sensor [A]: Atmospheric - 56.7 - - 56.5 0.6 / W - - 7/29/2014 6:30:04 AM
176-SR-528 @ SR-166 (562015) Status Air Temp Sfc Temp Sub Temp Dew Temp Wind Precip Traffic Updated
Sensor [A]: Atmospheric - 57.9 - - 52.7 2.5 / E - - 7/29/2014 6:30:06 AM
Sensor [0]: SR-528 SB N of SR-166 Dry - 59.0 - - - - - 7/29/2014 6:30:06 AM
Sensor [1]: SR-166 WB W of SR-528 Dry - 59.9 - - - - - 7/29/2014 6:30:06 AM
177-I-90 @ Hermitage Rd. (562016) Status Air Temp Sfc Temp Sub Temp Dew Temp Wind Precip Traffic Updated
Sensor [A]: Atmospheric - 66.7 - - 66.7 1.2 / E - - 6/18/2014 8:10:08 AM
Sensor [0]: I-90 WB N2 Lane Br Error - - - - - - - 6/18/2014 8:10:08 AM
178-I-90 @ Paine Rd. (562017) Status Air Temp Sfc Temp Sub Temp Dew Temp Wind Precip Traffic Updated
Sensor [A]: Atmospheric - 63.9 - - 42.3 6.8 / E - - 5/3/2013 8:30:25 AM
Sensor [0]: I-90 WB N2 Lane Br Error - - - - - - - 5/3/2013 8:30:25 AM
179-US-20 @ Parmly Rd. (562018) Status Air Temp Sfc Temp Sub Temp Dew Temp Wind Precip Traffic Updated
Sensor [A]: Atmospheric - 61.2 - - 53.4 - - - 7/29/2014 5:00:45 AM
Sensor [0]: US-20 WB N2 Lane Dry - 64.4 - - - - - 7/29/2014 5:00:45 AM
180-I270 @ US33 (38015) Status Air Temp Sfc Temp Sub Temp Dew Temp Wind Precip Traffic Updated
Sensor [A]: Atmospheric - 55.6 - - - 2.5 / N - - 7/29/2014 6:30:05 AM
181-US32 @ Pike & Adams County Line (200180) Status Air Temp Sfc Temp Sub Temp Dew Temp Wind Precip Traffic Updated
Sensor [A]: Atmospheric - 52.3 - - 51.3 - - - 7/29/2014 6:31:25 AM
182-I71 @ SR665 Grove City Outpost (200181) Status Air Temp Sfc Temp Sub Temp Dew Temp Wind Precip Traffic Updated
Sensor [A]: Atmospheric - 58.8 - - 55.8 1.2 / N - - 7/29/2014 6:32:08 AM
Sensor [1]: I71 NB Passing Lane Dry - 63.5 - - - - 58 / 57.2 7/29/2014 6:32:08 AM
183-US30 @ SR68 (200182) Status Air Temp Sfc Temp Sub Temp Dew Temp Wind Precip Traffic Updated
Sensor [A]: Atmospheric - 50.4 - - 48.9 2.5 / NW - - 7/29/2014 6:33:08 AM
Sensor [0]: US30 Eastbound Driving Approach Dry - 54.5 - - - - - 7/29/2014 6:33:08 AM
184 - SR562(Norwood Lateral) @ Reading Road (80000) Status Air Temp Sfc Temp Sub Temp Dew Temp Wind Precip Traffic Updated
Sensor [A]: Atmospheric - 65.3 - - 58.6 5.0 / NE - - 5/7/2013 11:00:57 AM
185 - River Road @ Kibby Lane (80001) Status Air Temp Sfc Temp Sub Temp Dew Temp Wind Precip Traffic Updated
Sensor [A]: Atmospheric - 53.4 - - 52.3 1.9 / SE - - 7/29/2014 6:30:34 AM
186-SR49 @ SR81 (200185) Status Air Temp Sfc Temp Sub Temp Dew Temp Wind Precip Traffic Updated
Sensor [A]: Atmospheric - 50.2 - - 49.5 1.2 / W - - 7/29/2014 6:33:17 AM
Sensor [0]: SR81 Eastbound Approach Dry - 54.5 - - - - - 7/29/2014 6:33:17 AM
Sensor [1]: SR81 Westbound Bridgedeck Dry - 52.7 - - - - - 7/29/2014 6:33:17 AM
187-SR15 @ SR613 (200186) Status Air Temp Sfc Temp Sub Temp Dew Temp Wind Precip Traffic Updated
Sensor [A]: Atmospheric - 46.6 - - 46.8 0.6 / SW - - 7/29/2014 6:29:29 AM
Sensor [0]: SR15 NB Lane Dry - 61.2 - - - - - 7/29/2014 6:29:29 AM